North Lawrence, Ohio
Current Conditions -  °F | °C
As of 1:51 PM on Thursday 27 Nov 2014 (Local Time) from KCAK Reporting Station
Light Snow Light Snow  
Wind Chill: 21°   Ceiling: 1700
Heat Index: 31°   Visibility: 3mi
Dew Point: 22°   Wind: 13mph
Humidity: 69%   Direction: 300°WNW
Pressure: 30.11"   Gusts: NA
Location:  40.84°N, 81.63°W
Report Text: KCAK 271851Z 30011KT 3SM -SN OVC017 M01/M06 A3011 RMK AO2 SFC VIS 5 SLP210 PCPN VRY LGT P0000 T10061056
Loading
Personal Weather Stations






























Interactive Weather Map New forecast layout! Learn more

10-Day Weather Forecast

Advertisements
Track Severe Weather on mobile